Time;durP1;ratioP1;P1;durP2;ratioP2;P2;SDS_P1;SDS_P2;PMS_P1;PMS_P2;Temp;Humidity;BMP_temperature;BMP_pressure;BME280_temperature;BME280_humidity;BME280_pressure;Samples;Min_cycle;Max_cycle;Signal;HPM_P1;HPM_P2
2023/11/18 00:00:58;;;;;;;1.60;1.50;;;6.80;99.90;;;;;;5050662;28;20206;-67
2023/11/18 00:03:25;;;;;;;2.07;1.87;;;6.80;99.90;;;;;;5050767;28;20194;-68
2023/11/18 00:05:52;;;;;;;1.63;1.43;;;6.80;99.90;;;;;;5034914;28;20724;-68
2023/11/18 00:08:19;;;;;;;1.50;1.40;;;6.80;99.90;;;;;;5029734;28;20213;-68
2023/11/18 00:10:47;;;;;;;2.87;1.43;;;6.80;99.90;;;;;;5029784;28;20234;-67
2023/11/18 00:13:14;;;;;;;2.17;1.90;;;6.80;99.90;;;;;;5033551;28;20194;-68
2023/11/18 00:15:42;;;;;;;1.90;1.60;;;6.80;99.90;;;;;;5030948;28;20225;-68
2023/11/18 00:18:09;;;;;;;2.80;1.90;;;6.80;99.90;;;;;;5028823;28;20637;-68
2023/11/18 00:20:36;;;;;;;1.90;1.80;;;6.80;99.90;;;;;;5036724;28;20263;-68
2023/11/18 00:23:04;;;;;;;2.07;1.80;;;6.80;99.90;;;;;;5032842;28;20198;-68
2023/11/18 00:25:31;;;;;;;2.07;1.90;;;6.80;99.90;;;;;;5030239;28;20202;-68
2023/11/18 00:27:58;;;;;;;2.00;1.80;;;6.80;99.90;;;;;;5038304;28;20221;-68
2023/11/18 00:30:25;;;;;;;2.17;1.97;;;6.80;99.90;;;;;;5030619;28;20698;-68
2023/11/18 00:32:54;;;;;;;2.10;1.77;;;6.80;99.90;;;;;;5030541;28;20276;-68
2023/11/18 00:35:21;;;;;;;2.30;1.70;;;6.90;99.90;;;;;;5029574;28;20272;-68
2023/11/18 00:37:48;;;;;;;1.67;1.57;;;6.90;99.90;;;;;;5044066;28;20220;-68
2023/11/18 00:40:17;;;;;;;1.80;1.60;;;6.90;99.90;;;;;;5028705;28;20636;-68
2023/11/18 00:42:45;;;;;;;1.50;1.40;;;6.90;99.90;;;;;;5035505;28;20194;-68
2023/11/18 00:45:12;;;;;;;2.53;1.67;;;6.90;99.90;;;;;;5029700;28;20223;-68
2023/11/18 00:47:40;;;;;;;1.80;1.70;;;6.90;99.90;;;;;;5030397;28;20202;-68
2023/11/18 00:50:09;;;;;;;1.70;1.60;;;6.90;99.90;;;;;;5034380;28;20531;-68
2023/11/18 00:52:38;;;;;;;1.83;1.70;;;6.90;99.90;;;;;;5030181;28;20187;-68
2023/11/18 00:55:07;;;;;;;2.13;1.87;;;6.90;99.90;;;;;;5029781;28;20210;-68
2023/11/18 00:57:34;;;;;;;2.30;1.80;;;6.90;99.90;;;;;;5032197;28;20199;-68
2023/11/18 01:00:02;;;;;;;1.93;1.83;;;6.90;99.90;;;;;;5030158;28;20222;-68
2023/11/18 01:02:29;;;;;;;2.53;1.70;;;6.90;99.90;;;;;;5028811;28;20206;-68
2023/11/18 01:04:56;;;;;;;1.83;1.67;;;7.00;99.90;;;;;;5049600;28;20262;-68
2023/11/18 01:07:24;;;;;;;1.60;1.50;;;7.00;99.90;;;;;;5049694;28;20251;-68
2023/11/18 01:09:51;;;;;;;1.80;1.70;;;7.00;99.90;;;;;;5044546;28;20198;-68
2023/11/18 01:12:18;;;;;;;1.90;1.23;;;7.00;99.90;;;;;;5057859;28;20205;-68
2023/11/18 01:14:45;;;;;;;1.70;1.60;;;7.00;99.90;;;;;;5035319;28;20294;-68
2023/11/18 01:17:13;;;;;;;2.07;1.80;;;7.00;99.90;;;;;;5036728;28;20205;-68
2023/11/18 01:19:40;;;;;;;2.80;1.80;;;7.00;99.90;;;;;;5040191;28;20198;-68
2023/11/18 01:22:08;;;;;;;1.63;1.43;;;7.00;99.90;;;;;;5053508;28;20607;-68
2023/11/18 01:24:36;;;;;;;1.30;1.20;;;7.00;99.90;;;;;;5051242;28;20198;-67
2023/11/18 01:27:04;;;;;;;1.77;1.60;;;7.00;99.90;;;;;;5054132;28;20277;-68
2023/11/18 01:29:31;;;;;;;4.40;2.00;;;7.00;99.90;;;;;;5052591;28;20209;-67
2023/11/18 01:31:58;;;;;;;1.67;1.50;;;6.90;99.90;;;;;;5037320;28;20202;-67
2023/11/18 01:34:25;;;;;;;3.40;1.60;;;6.90;99.90;;;;;;5056860;28;20638;-66
2023/11/18 01:36:52;;;;;;;2.40;1.73;;;6.90;99.90;;;;;;5052597;28;20198;-67
2023/11/18 01:39:20;;;;;;;2.00;1.57;;;6.90;99.90;;;;;;5047920;28;20198;-66
2023/11/18 01:41:49;;;;;;;2.43;1.77;;;6.90;99.90;;;;;;5057770;28;20217;-67
2023/11/18 01:44:17;;;;;;;2.67;1.93;;;7.00;99.90;;;;;;5051949;28;20269;-67
2023/11/18 01:46:45;;;;;;;2.17;1.77;;;6.90;99.90;;;;;;5053066;28;20206;-67
2023/11/18 01:49:13;;;;;;;2.23;1.90;;;6.90;99.90;;;;;;5034502;28;20289;-67
2023/11/18 01:51:42;;;;;;;2.37;1.93;;;6.80;99.90;;;;;;5052322;28;20186;-67
2023/11/18 01:54:12;;;;;;;2.17;1.97;;;6.80;99.90;;;;;;5049970;28;20282;-67
2023/11/18 01:56:39;;;;;;;2.93;2.00;;;6.80;99.90;;;;;;5036686;28;20313;-68
2023/11/18 01:59:10;;;;;;;2.17;1.87;;;6.80;99.90;;;;;;5033181;28;20194;-68
2023/11/18 02:01:39;;;;;;;1.97;1.77;;;6.80;99.90;;;;;;5028713;28;20259;-68
2023/11/18 02:04:07;;;;;;;1.77;1.67;;;6.80;99.90;;;;;;5055091;28;20233;-68
2023/11/18 02:06:36;;;;;;;2.20;1.73;;;6.70;99.90;;;;;;5031738;28;20597;-68
2023/11/18 02:09:03;;;;;;;2.40;2.20;;;6.70;99.90;;;;;;5052194;28;20776;-68
2023/11/18 02:11:35;;;;;;;1.90;1.80;;;6.70;99.90;;;;;;5057663;28;20186;-68
2023/11/18 02:14:04;;;;;;;2.40;1.90;;;6.70;99.90;;;;;;5051671;28;20185;-67
2023/11/18 02:16:33;;;;;;;1.77;1.60;;;6.70;99.90;;;;;;5051773;28;20276;-68
2023/11/18 02:19:02;;;;;;;1.40;1.30;;;6.80;99.90;;;;;;5038774;28;20206;-68
2023/11/18 02:21:33;;;;;;;1.43;1.33;;;6.80;99.90;;;;;;5049459;28;20210;-68
2023/11/18 02:24:01;;;;;;;1.50;1.40;;;6.80;99.90;;;;;;5054204;28;20276;-67
2023/11/18 02:26:30;;;;;;;1.57;1.47;;;6.80;99.90;;;;;;5053605;28;20255;-68
2023/11/18 02:28:57;;;;;;;1.40;1.30;;;6.80;99.90;;;;;;5033840;28;20727;-68
2023/11/18 02:31:31;;;;;;;1.87;1.60;;;6.70;99.90;;;;;;5051137;28;20201;-68
2023/11/18 02:34:03;;;;;;;1.17;1.17;;;6.80;99.90;;;;;;5055372;28;20225;-67
2023/11/18 02:36:36;;;;;;;1.50;1.40;;;6.80;99.90;;;;;;5033763;28;20202;-68
2023/11/18 02:39:08;;;;;;;1.63;1.53;;;6.80;99.90;;;;;;5052466;28;20672;-67
2023/11/18 02:41:39;;;;;;;1.97;1.87;;;6.80;99.90;;;;;;5051863;28;20233;-67
2023/11/18 02:44:10;;;;;;;1.77;1.67;;;6.80;99.90;;;;;;5050763;28;20198;-68
2023/11/18 02:46:38;;;;;;;2.63;2.17;;;6.80;99.90;;;;;;5039904;28;20201;-67
2023/11/18 02:49:05;;;;;;;1.87;1.77;;;6.80;99.90;;;;;;5036938;28;20211;-67
2023/11/18 02:51:33;;;;;;;1.63;1.50;;;6.80;99.90;;;;;;5051299;28;20248;-67
2023/11/18 02:54:00;;;;;;;2.90;1.80;;;6.70;99.90;;;;;;5052573;28;20284;-67
2023/11/18 02:56:27;;;;;;;2.13;2.00;;;6.70;99.90;;;;;;5051532;28;20555;-67
2023/11/18 02:58:57;;;;;;;1.70;1.60;;;6.70;99.90;;;;;;5029905;28;20989;-67
2023/11/18 03:01:25;;;;;;;1.97;1.70;;;6.70;99.90;;;;;;5054264;28;20263;-68
2023/11/18 03:03:52;;;;;;;1.53;1.43;;;6.70;99.90;;;;;;5050770;28;20667;-67
2023/11/18 03:06:19;;;;;;;2.00;1.80;;;6.70;99.90;;;;;;5033069;28;20225;-67
2023/11/18 03:08:46;;;;;;;2.03;1.83;;;6.70;99.90;;;;;;5056121;28;20282;-67
2023/11/18 03:11:13;;;;;;;3.60;2.10;;;6.70;99.90;;;;;;5050657;28;20289;-67
2023/11/18 03:13:40;;;;;;;3.23;1.80;;;6.60;99.90;;;;;;5032767;28;20779;-67
2023/11/18 03:16:11;;;;;;;4.20;2.13;;;6.60;99.90;;;;;;5053997;28;20270;-67
2023/11/18 03:18:39;;;;;;;2.13;1.80;;;6.50;99.90;;;;;;5051200;28;20205;-68
2023/11/18 03:21:07;;;;;;;2.60;1.90;;;6.50;99.90;;;;;;5050499;28;20213;-68
2023/11/18 03:23:34;;;;;;;2.40;1.90;;;6.60;99.90;;;;;;5050472;28;20204;-67
2023/11/18 03:26:02;;;;;;;1.93;1.73;;;6.60;99.90;;;;;;5050892;28;20212;-67
2023/11/18 03:28:29;;;;;;;1.93;1.80;;;6.60;99.90;;;;;;5032561;28;20695;-67
2023/11/18 03:30:56;;;;;;;1.83;1.73;;;6.70;99.90;;;;;;5049803;28;20715;-67
2023/11/18 03:33:25;;;;;;;2.17;2.00;;;6.70;99.90;;;;;;5051085;28;20198;-68
2023/11/18 03:35:52;;;;;;;1.80;1.70;;;6.70;99.90;;;;;;5050419;28;20197;-67
2023/11/18 03:38:19;;;;;;;1.67;1.57;;;6.70;99.90;;;;;;5033739;28;20200;-67
2023/11/18 03:40:46;;;;;;;1.60;1.50;;;6.70;99.90;;;;;;5033215;28;20226;-67
2023/11/18 03:43:14;;;;;;;1.60;1.30;;;6.70;99.90;;;;;;5032782;28;20263;-67
2023/11/18 03:45:42;;;;;;;1.60;1.50;;;6.70;99.90;;;;;;5057851;28;20194;-68
2023/11/18 03:48:09;;;;;;;1.80;1.70;;;6.70;99.90;;;;;;5050977;28;20676;-68
2023/11/18 03:50:37;;;;;;;1.37;1.30;;;6.70;99.90;;;;;;5049381;28;20197;-68
2023/11/18 03:53:04;;;;;;;1.80;1.70;;;6.70;99.90;;;;;;5053286;28;20229;-68
2023/11/18 03:55:31;;;;;;;1.80;1.70;;;6.70;99.90;;;;;;5050448;28;20202;-68
2023/11/18 03:57:59;;;;;;;1.53;1.20;;;6.70;99.90;;;;;;5032218;28;20664;-68
2023/11/18 04:00:29;;;;;;;2.13;1.87;;;6.70;99.90;;;;;;5037548;28;20205;-68
2023/11/18 04:02:58;;;;;;;4.93;2.23;;;6.60;99.90;;;;;;5050684;28;20200;-68
2023/11/18 04:05:25;;;;;;;2.93;2.20;;;6.50;99.90;;;;;;5049976;28;20699;-68
2023/11/18 04:07:53;;;;;;;3.23;2.07;;;6.40;99.90;;;;;;5041751;28;20631;-68
2023/11/18 04:10:20;;;;;;;3.57;1.97;;;6.40;99.90;;;;;;5050281;28;20216;-68
2023/11/18 04:12:48;;;;;;;2.10;1.70;;;6.40;99.90;;;;;;5049392;28;20194;-68
2023/11/18 04:15:16;;;;;;;3.37;2.10;;;6.50;99.90;;;;;;5057555;28;20248;-68
2023/11/18 04:17:43;;;;;;;3.70;2.40;;;6.40;99.90;;;;;;5048479;28;20661;-68
2023/11/18 04:20:12;;;;;;;2.90;2.00;;;6.50;99.90;;;;;;5032796;28;20194;-68
2023/11/18 04:22:40;;;;;;;2.70;2.07;;;6.50;99.90;;;;;;5054853;28;20212;-69
2023/11/18 04:25:11;;;;;;;3.80;2.20;;;6.50;99.90;;;;;;5050381;28;20273;-68
2023/11/18 04:27:38;;;;;;;3.23;2.40;;;6.50;99.90;;;;;;5031829;28;20694;-68
2023/11/18 04:30:06;;;;;;;1.97;1.77;;;6.50;99.90;;;;;;5057179;28;20202;-68
2023/11/18 04:32:33;;;;;;;2.40;2.13;;;6.60;99.90;;;;;;5050763;28;20556;-68
2023/11/18 04:35:06;;;;;;;3.80;2.10;;;6.60;99.90;;;;;;5050081;28;20277;-68
2023/11/18 04:37:33;;;;;;;4.33;2.20;;;6.60;99.90;;;;;;5052846;28;20269;-69
2023/11/18 04:40:00;;;;;;;4.23;2.90;;;6.60;99.90;;;;;;5032751;28;20209;-67
2023/11/18 04:42:29;;;;;;;3.87;2.63;;;6.60;99.90;;;;;;5031395;28;20296;-68
2023/11/18 04:44:56;;;;;;;3.40;2.17;;;6.50;99.90;;;;;;5042336;28;20224;-67
2023/11/18 04:47:24;;;;;;;2.93;2.13;;;6.50;99.90;;;;;;5054700;28;20198;-67
2023/11/18 04:49:52;;;;;;;2.23;2.00;;;6.50;99.90;;;;;;5054591;28;20197;-68
2023/11/18 04:52:19;;;;;;;2.20;2.00;;;6.50;99.90;;;;;;5055270;28;20273;-68
2023/11/18 04:54:47;;;;;;;2.00;1.90;;;6.50;99.90;;;;;;5046527;28;20224;-68
2023/11/18 04:57:15;;;;;;;3.30;2.20;;;6.50;99.90;;;;;;5052229;28;20282;-68
2023/11/18 04:59:43;;;;;;;2.57;2.10;;;6.50;99.90;;;;;;5034946;28;20320;-68
2023/11/18 05:02:10;;;;;;;2.23;1.73;;;6.50;99.90;;;;;;5052314;28;20202;-68
2023/11/18 05:04:37;;;;;;;3.27;2.00;;;6.50;99.90;;;;;;5053704;28;20308;-68
2023/11/18 05:07:06;;;;;;;2.93;2.37;;;6.60;99.90;;;;;;5053375;28;20214;-68
2023/11/18 05:09:34;;;;;;;4.27;2.57;;;6.60;99.90;;;;;;5052852;28;20213;-68
2023/11/18 05:12:02;;;;;;;3.27;2.33;;;6.60;99.90;;;;;;5054321;28;20221;-68
2023/11/18 05:14:29;;;;;;;4.40;2.53;;;6.60;99.90;;;;;;5052267;28;20193;-68
2023/11/18 05:16:58;;;;;;;3.73;2.87;;;6.60;99.90;;;;;;5053595;28;20200;-68
2023/11/18 05:19:25;;;;;;;4.83;2.70;;;6.60;99.90;;;;;;5059212;28;20272;-68
2023/11/18 05:21:53;;;;;;;3.07;2.30;;;6.60;99.90;;;;;;5053123;28;20213;-68
2023/11/18 05:24:20;;;;;;;3.87;2.80;;;6.60;99.90;;;;;;5049753;28;20278;-68
2023/11/18 05:26:47;;;;;;;3.83;2.87;;;6.60;99.90;;;;;;5038120;28;20210;-68
2023/11/18 05:29:16;;;;;;;3.87;2.73;;;6.50;99.90;;;;;;5052621;28;20210;-68
2023/11/18 05:31:45;;;;;;;3.93;2.60;;;6.50;99.90;;;;;;5053316;28;20633;-68
2023/11/18 05:34:13;;;;;;;2.57;2.37;;;6.50;99.90;;;;;;5055928;28;20197;-68
2023/11/18 05:36:40;;;;;;;3.93;2.23;;;6.50;99.90;;;;;;5052573;28;20243;-68
2023/11/18 05:39:08;;;;;;;4.20;2.87;;;6.40;99.90;;;;;;5051701;28;20244;-67
2023/11/18 05:41:39;;;;;;;5.53;2.40;;;6.50;99.90;;;;;;5051398;28;20216;-68
2023/11/18 05:44:08;;;;;;;4.10;2.73;;;6.50;99.90;;;;;;5048322;28;20208;-68
2023/11/18 05:46:36;;;;;;;4.23;2.93;;;6.60;99.90;;;;;;5053162;28;20198;-68
2023/11/18 05:49:07;;;;;;;3.67;2.60;;;6.50;99.90;;;;;;5050694;28;20193;-68
2023/11/18 05:51:36;;;;;;;2.73;2.37;;;6.50;99.90;;;;;;5053051;28;20242;-68
2023/11/18 05:54:03;;;;;;;3.03;2.40;;;6.50;99.90;;;;;;5051356;28;20620;-68
2023/11/18 05:56:30;;;;;;;4.33;2.30;;;6.40;99.90;;;;;;5056143;28;20186;-68
2023/11/18 05:58:57;;;;;;;2.33;2.00;;;6.40;99.90;;;;;;5051935;28;20990;-68
2023/11/18 06:01:27;;;;;;;2.47;2.27;;;6.40;99.90;;;;;;5048511;28;20198;-68
2023/11/18 06:03:54;;;;;;;2.80;2.20;;;6.50;99.90;;;;;;5058354;28;20228;-67
2023/11/18 06:06:21;;;;;;;2.60;2.40;;;6.50;99.90;;;;;;5052310;28;20284;-68
2023/11/18 06:08:50;;;;;;;2.20;2.00;;;6.50;99.90;;;;;;5052437;28;20221;-68
2023/11/18 06:11:18;;;;;;;2.00;1.80;;;6.50;99.90;;;;;;5052881;28;20558;-68
2023/11/18 06:13:47;;;;;;;2.33;1.83;;;6.50;99.90;;;;;;5051313;28;20201;-67
2023/11/18 06:16:20;;;;;;;2.50;2.30;;;6.50;99.90;;;;;;5033859;28;20208;-67
2023/11/18 06:18:48;;;;;;;2.30;2.10;;;6.60;99.90;;;;;;5052256;28;20598;-67
2023/11/18 06:21:16;;;;;;;1.67;1.57;;;6.60;99.90;;;;;;5051366;28;20200;-67
2023/11/18 06:23:43;;;;;;;1.87;1.67;;;6.70;99.90;;;;;;5051620;28;20587;-67
2023/11/18 06:26:12;;;;;;;2.00;1.90;;;6.70;99.90;;;;;;5055351;28;20232;-66
2023/11/18 06:28:40;;;;;;;1.80;1.70;;;6.80;99.90;;;;;;5051888;28;20217;-67
2023/11/18 06:31:08;;;;;;;1.73;1.60;;;6.80;99.90;;;;;;5053879;28;20194;-67
2023/11/18 06:33:42;;;;;;;2.03;1.60;;;6.90;99.90;;;;;;5052236;28;20190;-68
2023/11/18 06:36:11;;;;;;;1.70;1.60;;;6.90;99.90;;;;;;5051516;28;20630;-68
2023/11/18 06:38:38;;;;;;;1.50;1.40;;;6.90;99.90;;;;;;5052939;28;20189;-67
2023/11/18 06:41:08;;;;;;;1.60;1.50;;;6.90;99.90;;;;;;5053840;28;20199;-68
2023/11/18 06:43:51;;;;;;;1.50;1.40;;;6.90;99.90;;;;;;5045633;28;20206;-67
2023/11/18 06:46:20;;;;;;;1.83;1.73;;;7.00;99.90;;;;;;5051416;28;20185;-67
2023/11/18 06:48:49;;;;;;;1.50;1.40;;;6.90;99.90;;;;;;5054616;28;20654;-67
2023/11/18 06:51:16;;;;;;;1.77;1.67;;;6.90;99.90;;;;;;5052654;28;20271;-68
2023/11/18 06:53:44;;;;;;;1.63;1.53;;;6.90;99.90;;;;;;5052383;28;20186;-68
2023/11/18 06:56:11;;;;;;;1.50;1.40;;;6.90;99.90;;;;;;5055433;28;20280;-70
2023/11/18 06:58:41;;;;;;;1.70;1.60;;;6.90;99.90;;;;;;5034034;28;20201;-68
2023/11/18 07:01:09;;;;;;;1.70;1.60;;;6.90;99.90;;;;;;5048611;28;20549;-68
2023/11/18 07:03:36;;;;;;;1.47;1.37;;;6.90;99.90;;;;;;5068291;28;20242;-66
2023/11/18 07:06:05;;;;;;;1.70;1.60;;;6.90;99.90;;;;;;5056381;28;20205;-67
2023/11/18 07:08:34;;;;;;;1.60;1.50;;;6.90;99.90;;;;;;5057151;28;20193;-69
2023/11/18 07:11:02;;;;;;;1.73;1.60;;;6.90;99.90;;;;;;5054995;28;20201;-68
2023/11/18 07:13:29;;;;;;;1.60;1.50;;;6.90;99.90;;;;;;5050714;28;20194;-68
2023/11/18 07:15:57;;;;;;;1.63;1.53;;;6.90;99.90;;;;;;5053904;28;20205;-68
2023/11/18 07:18:25;;;;;;;1.80;1.70;;;7.00;99.90;;;;;;5051279;28;20237;-68
2023/11/18 07:20:52;;;;;;;1.83;1.73;;;7.00;99.90;;;;;;5049565;28;20224;-67
2023/11/18 07:23:19;;;;;;;2.67;1.97;;;6.90;99.90;;;;;;5033810;28;20241;-67
2023/11/18 07:25:49;;;;;;;2.67;2.27;;;6.90;99.90;;;;;;5032687;28;20210;-67
2023/11/18 07:28:17;;;;;;;3.50;2.10;;;7.00;99.90;;;;;;5050764;28;20201;-67
2023/11/18 07:30:47;;;;;;;2.60;2.40;;;7.00;99.90;;;;;;5059328;28;20274;-67
2023/11/18 07:33:15;;;;;;;2.90;2.33;;;7.00;99.90;;;;;;5032782;28;20271;-68
2023/11/18 07:35:43;;;;;;;3.07;2.20;;;7.00;99.90;;;;;;5050472;28;20190;-68
2023/11/18 07:38:10;;;;;;;4.47;2.60;;;7.00;99.90;;;;;;5050100;28;20259;-67
2023/11/18 07:40:42;;;;;;;3.37;2.60;;;7.00;99.90;;;;;;5050098;28;20224;-67
2023/11/18 07:43:09;;;;;;;4.77;2.83;;;6.90;99.90;;;;;;5047836;28;20301;-68
2023/11/18 07:45:37;;;;;;;3.23;2.77;;;6.90;99.90;;;;;;5036017;28;20278;-67
2023/11/18 07:48:06;;;;;;;3.23;2.63;;;6.90;99.90;;;;;;5050952;28;20224;-67
2023/11/18 07:50:35;;;;;;;2.70;2.30;;;6.90;99.90;;;;;;5050477;28;20200;-67
2023/11/18 07:53:02;;;;;;;2.57;2.13;;;7.00;99.90;;;;;;5054008;28;20198;-67
2023/11/18 07:55:29;;;;;;;3.17;2.70;;;7.00;99.90;;;;;;5050546;28;20189;-67
2023/11/18 07:57:57;;;;;;;3.37;2.63;;;7.00;99.90;;;;;;5054115;28;20285;-68
2023/11/18 08:00:24;;;;;;;2.57;2.00;;;7.00;99.90;;;;;;5052771;28;20281;-68
2023/11/18 08:02:54;;;;;;;2.03;1.80;;;7.00;99.90;;;;;;5031905;28;20567;-68
2023/11/18 08:05:22;;;;;;;2.80;2.50;;;7.10;99.90;;;;;;5047724;28;20257;-68
2023/11/18 08:07:51;;;;;;;2.37;2.17;;;7.10;99.90;;;;;;5037281;28;20202;-68
2023/11/18 08:10:19;;;;;;;2.63;2.20;;;7.00;99.90;;;;;;5050519;28;20276;-67
2023/11/18 08:12:47;;;;;;;2.27;2.17;;;7.00;99.90;;;;;;5042166;28;20186;-67
2023/11/18 08:15:14;;;;;;;2.13;1.80;;;7.00;99.90;;;;;;5054044;28;20198;-67
2023/11/18 08:17:41;;;;;;;3.97;2.33;;;7.00;99.90;;;;;;5032169;28;20221;-67
2023/11/18 08:20:13;;;;;;;3.27;2.80;;;7.10;99.90;;;;;;5056395;28;20194;-67
2023/11/18 08:22:41;;;;;;;3.37;2.77;;;7.00;99.90;;;;;;5060872;28;20209;-68
2023/11/18 08:25:12;;;;;;;3.73;2.73;;;7.00;99.90;;;;;;5054123;28;20201;-68
2023/11/18 08:27:40;;;;;;;2.37;2.13;;;7.00;99.90;;;;;;5052523;28;20243;-68
2023/11/18 08:30:11;;;;;;;2.50;2.30;;;7.00;99.90;;;;;;5036482;28;20212;-70
2023/11/18 08:32:39;;;;;;;3.83;2.50;;;7.10;99.90;;;;;;5055172;28;20595;-68
2023/11/18 08:35:07;;;;;;;2.73;2.20;;;7.00;99.90;;;;;;5052095;28;20566;-68
2023/11/18 08:37:36;;;;;;;2.43;1.90;;;7.10;99.90;;;;;;5053963;28;20187;-67
2023/11/18 08:40:03;;;;;;;2.43;2.17;;;7.10;99.90;;;;;;5053571;28;20199;-68
2023/11/18 08:42:31;;;;;;;3.03;2.27;;;7.10;99.90;;;;;;5054840;28;20810;-67
2023/11/18 08:44:59;;;;;;;2.20;1.80;;;7.10;99.90;;;;;;5054926;28;20272;-68
2023/11/18 08:47:26;;;;;;;1.93;1.83;;;7.20;99.90;;;;;;5053638;28;20205;-67
2023/11/18 08:49:53;;;;;;;2.10;1.90;;;7.30;99.90;;;;;;5053871;28;20206;-68
2023/11/18 08:52:20;;;;;;;2.20;2.00;;;7.30;99.90;;;;;;5042943;28;20568;-68
2023/11/18 08:57:38;;;;;;;2.20;2.10;;;7.30;99.90;;;;;;5053400;28;20728;-67
2023/11/18 09:00:42;;;;;;;2.10;1.90;;;7.40;99.90;;;;;;5051271;28;20193;-68
2023/11/18 09:03:01;;;;;;;2.50;2.03;;;7.40;99.90;;;;;;5044342;28;20213;-68
2023/11/18 09:05:31;;;;;;;2.40;2.20;;;7.40;99.90;;;;;;5046685;28;20300;-67
2023/11/18 09:08:00;;;;;;;2.40;2.20;;;7.40;99.90;;;;;;5038618;28;20190;-67
2023/11/18 09:10:29;;;;;;;2.43;2.23;;;7.40;99.90;;;;;;5050338;28;20223;-68
2023/11/18 09:12:56;;;;;;;3.10;2.77;;;7.40;99.90;;;;;;5054242;28;20197;-68
2023/11/18 09:15:24;;;;;;;3.03;2.60;;;7.40;99.90;;;;;;5055669;28;20264;-68
2023/11/18 09:17:52;;;;;;;4.93;2.80;;;7.40;99.90;;;;;;5054012;28;20196;-68
2023/11/18 09:20:22;;;;;;;4.07;3.00;;;7.40;99.90;;;;;;5038621;28;20202;-68
2023/11/18 09:22:49;;;;;;;3.47;2.67;;;7.40;99.90;;;;;;5051723;28;20212;-67
2023/11/18 09:25:17;;;;;;;5.87;3.30;;;7.20;99.90;;;;;;5040643;28;20194;-67
2023/11/18 09:27:45;;;;;;;7.27;4.10;;;7.30;99.90;;;;;;5050445;28;20276;-68
2023/11/18 09:30:14;;;;;;;4.43;3.50;;;7.30;99.90;;;;;;5049758;28;20201;-68
2023/11/18 09:32:43;;;;;;;7.67;4.30;;;7.30;99.90;;;;;;5051564;28;20194;-68
2023/11/18 09:35:12;;;;;;;12.70;5.93;;;7.30;99.90;;;;;;5030015;28;20198;-67
2023/11/18 09:37:40;;;;;;;8.67;5.30;;;7.20;99.90;;;;;;5049217;28;20240;-67
2023/11/18 09:40:12;;;;;;;9.97;5.43;;;7.20;99.90;;;;;;5050900;28;20193;-68
2023/11/18 09:42:39;;;;;;;8.80;5.27;;;7.10;99.90;;;;;;5052225;28;20215;-68
2023/11/18 09:45:13;;;;;;;8.13;4.73;;;7.10;99.90;;;;;;5052959;28;20194;-68
2023/11/18 09:47:47;;;;;;;6.30;4.40;;;7.10;99.90;;;;;;5033929;28;20206;-68
2023/11/18 09:50:19;;;;;;;8.23;4.93;;;7.20;99.90;;;;;;5046883;28;20216;-67
2023/11/18 09:52:52;;;;;;;8.00;5.13;;;7.20;99.90;;;;;;5051943;28;20243;-68
2023/11/18 09:55:31;;;;;;;14.17;4.87;;;7.10;99.90;;;;;;5049053;28;20336;-67
2023/11/18 09:58:08;;;;;;;7.33;4.23;;;7.10;99.90;;;;;;5053496;28;20741;-68
2023/11/18 10:00:41;;;;;;;7.23;4.40;;;7.10;99.90;;;;;;5034547;28;20231;-68
2023/11/18 10:03:15;;;;;;;5.57;4.20;;;7.10;99.90;;;;;;5058659;28;20210;-68
2023/11/18 10:05:43;;;;;;;7.87;4.80;;;7.20;99.90;;;;;;5055574;28;20246;-68
2023/11/18 10:08:10;;;;;;;5.60;3.87;;;7.20;99.90;;;;;;5037251;28;20214;-68
2023/11/18 10:10:37;;;;;;;5.63;3.63;;;7.30;99.90;;;;;;5048773;28;20625;-68
2023/11/18 10:13:08;;;;;;;5.57;3.70;;;7.20;99.90;;;;;;5048272;28;20512;-68
2023/11/18 10:15:36;;;;;;;4.17;3.37;;;7.30;99.90;;;;;;5050292;28;20200;-68
2023/11/18 10:18:07;;;;;;;4.33;3.23;;;7.30;99.90;;;;;;5033910;28;20202;-68
2023/11/18 10:20:46;;;;;;;4.90;3.27;;;7.30;99.90;;;;;;5045523;28;20240;-68
2023/11/18 10:23:19;;;;;;;3.40;2.87;;;7.30;99.90;;;;;;5048438;28;20672;-68
2023/11/18 10:25:48;;;;;;;3.43;2.77;;;7.30;99.90;;;;;;5035882;28;20205;-68
2023/11/18 10:28:27;;;;;;;3.60;3.07;;;7.30;99.90;;;;;;5049355;28;20654;-68
2023/11/18 10:30:57;;;;;;;4.10;2.83;;;7.40;99.90;;;;;;5047553;28;20183;-68
2023/11/18 10:33:30;;;;;;;3.80;3.07;;;7.40;99.90;;;;;;5048525;28;20643;-68
2023/11/18 10:36:02;;;;;;;7.10;4.80;;;7.40;99.90;;;;;;5049943;28;20684;-68
2023/11/18 10:38:30;;;;;;;7.67;5.20;;;7.30;99.90;;;;;;5030605;28;20201;-66
2023/11/18 10:41:00;;;;;;;8.03;4.53;;;7.30;99.90;;;;;;5052116;28;20243;-67
2023/11/18 10:43:29;;;;;;;8.70;4.90;;;7.30;99.90;;;;;;5047820;28;20209;-68
2023/11/18 10:46:11;;;;;;;5.93;4.27;;;7.30;99.90;;;;;;5050222;28;20225;-68
2023/11/18 10:48:42;;;;;;;5.23;4.10;;;7.20;99.90;;;;;;5053006;28;20216;-67
2023/11/18 10:51:13;;;;;;;5.00;3.80;;;7.20;99.90;;;;;;5048853;28;20634;-67
2023/11/18 10:53:42;;;;;;;4.70;3.50;;;7.20;99.90;;;;;;5044516;28;20197;-68
2023/11/18 10:56:24;;;;;;;4.03;3.50;;;7.20;99.90;;;;;;5056613;28;20675;-67
2023/11/18 10:58:51;;;;;;;3.80;2.93;;;7.20;99.90;;;;;;5039747;28;20621;-67
2023/11/18 11:01:28;;;;;;;3.50;3.17;;;7.20;99.90;;;;;;5030666;28;20244;-67
2023/11/18 11:03:56;;;;;;;4.20;3.33;;;7.20;99.90;;;;;;5058404;28;20224;-67
2023/11/18 11:06:25;;;;;;;3.20;2.90;;;7.20;99.90;;;;;;5049731;28;20249;-67
2023/11/18 11:08:53;;;;;;;4.13;3.17;;;7.20;99.90;;;;;;5044653;28;20270;-67
2023/11/18 11:11:23;;;;;;;4.47;3.60;;;7.20;99.90;;;;;;5032987;28;20612;-67
2023/11/18 11:13:57;;;;;;;3.43;2.80;;;7.10;99.90;;;;;;5047487;28;20257;-67
2023/11/18 11:16:33;;;;;;;3.17;2.83;;;7.10;99.90;;;;;;5049355;28;20549;-66
2023/11/18 11:19:08;;;;;;;3.60;3.07;;;7.20;99.90;;;;;;5047634;28;20649;-67
2023/11/18 11:21:47;;;;;;;3.00;2.70;;;7.20;99.90;;;;;;5047902;28;20216;-66
2023/11/18 11:24:23;;;;;;;3.03;2.73;;;7.10;99.90;;;;;;5046937;28;20698;-67
2023/11/18 11:27:04;;;;;;;3.23;2.60;;;7.20;99.90;;;;;;5053746;28;20198;-67
2023/11/18 11:29:37;;;;;;;2.47;2.27;;;7.20;99.90;;;;;;5050639;28;20346;-66
2023/11/18 11:32:18;;;;;;;2.37;2.03;;;7.20;99.90;;;;;;5050517;28;20212;-66
2023/11/18 11:34:56;;;;;;;2.90;2.30;;;7.20;99.90;;;;;;5049443;28;20247;-66
2023/11/18 11:37:27;;;;;;;2.97;2.67;;;7.10;99.90;;;;;;5046582;28;20190;-68
2023/11/18 11:39:55;;;;;;;2.67;2.40;;;7.10;99.90;;;;;;5042804;28;20278;-68
2023/11/18 11:42:24;;;;;;;3.57;2.80;;;7.10;99.90;;;;;;5059087;28;20192;-68
2023/11/18 11:44:55;;;;;;;5.20;3.70;;;7.10;99.90;;;;;;5031901;28;20839;-68
2023/11/18 11:47:23;;;;;;;4.07;3.17;;;7.10;99.90;;;;;;5050502;28;20208;-66
2023/11/18 11:49:59;;;;;;;5.80;3.70;;;7.10;99.90;;;;;;5051369;28;20206;-68
2023/11/18 11:52:37;;;;;;;3.57;2.80;;;7.10;99.90;;;;;;5046221;28;20190;-68
2023/11/18 11:55:13;;;;;;;4.43;3.37;;;7.10;99.90;;;;;;5049200;28;20237;-68
2023/11/18 11:57:42;;;;;;;3.30;2.80;;;7.10;99.90;;;;;;5060033;28;20296;-67
2023/11/18 12:00:16;;;;;;;6.00;4.30;;;7.10;99.90;;;;;;5033171;28;20595;-68
2023/11/18 12:02:49;;;;;;;4.13;3.63;;;7.10;99.90;;;;;;5047233;28;20198;-68
2023/11/18 12:05:24;;;;;;;4.37;3.63;;;7.10;99.90;;;;;;5034623;28;20243;-68
2023/11/18 12:07:54;;;;;;;3.30;3.00;;;7.10;99.90;;;;;;5046494;28;20252;-67
2023/11/18 12:10:22;;;;;;;4.83;3.73;;;7.10;99.90;;;;;;5045538;28;20201;-67
2023/11/18 12:12:52;;;;;;;4.97;3.83;;;7.10;99.90;;;;;;5032139;28;20233;-68
2023/11/18 12:15:54;;;;;;;9.17;5.70;;;7.00;99.90;;;;;;5049939;28;20601;-67
2023/11/18 12:18:21;;;;;;;8.00;4.60;;;7.00;99.90;;;;;;5030287;28;20213;-67
2023/11/18 12:20:53;;;;;;;5.93;3.73;;;7.00;99.90;;;;;;5048964;28;20288;-67
2023/11/18 12:23:24;;;;;;;4.77;3.67;;;7.00;99.90;;;;;;5044680;28;20752;-67
2023/11/18 12:25:54;;;;;;;4.03;3.50;;;6.90;99.90;;;;;;5047949;28;20205;-67
2023/11/18 12:28:26;;;;;;;4.70;3.40;;;6.90;99.90;;;;;;5049328;28;20684;-67
2023/11/18 12:31:04;;;;;;;4.43;3.33;;;6.90;99.90;;;;;;5050289;28;20292;-67
2023/11/18 12:34:09;;;;;;;6.33;3.97;;;7.00;99.90;;;;;;5049883;28;21028;-67
2023/11/18 12:37:10;;;;;;;6.90;3.83;;;7.00;99.90;;;;;;5040436;28;20281;-67
2023/11/18 12:40:24;;;;;;;5.20;3.53;;;7.00;99.90;;;;;;5037009;28;20262;-67
2023/11/18 12:43:05;;;;;;;4.57;3.67;;;7.00;99.90;;;;;;5033914;28;20290;-68
2023/11/18 12:46:05;;;;;;;4.47;3.23;;;7.00;99.90;;;;;;5029640;28;20758;-68
2023/11/18 12:48:39;;;;;;;6.83;4.50;;;6.90;99.90;;;;;;5024918;28;20193;-67
2023/11/18 12:51:10;;;;;;;10.57;4.53;;;6.90;99.90;;;;;;5046030;28;20202;-67
2023/11/18 12:53:37;;;;;;;5.97;3.90;;;6.90;99.90;;;;;;5047865;28;20213;-67
2023/11/18 12:56:05;;;;;;;6.70;3.70;;;6.90;99.90;;;;;;5055776;28;20218;-68
2023/11/18 12:58:33;;;;;;;3.50;3.20;;;6.90;99.90;;;;;;5046986;28;20194;-68
2023/11/18 13:01:02;;;;;;;3.93;3.53;;;6.90;99.90;;;;;;5040892;28;20193;-68
2023/11/18 13:03:30;;;;;;;6.07;4.50;;;6.90;99.90;;;;;;5047061;28;20276;-67
2023/11/18 13:05:58;;;;;;;4.43;3.37;;;6.90;99.90;;;;;;5049794;28;20198;-68
2023/11/18 13:08:26;;;;;;;5.23;3.70;;;6.90;99.90;;;;;;5049695;28;20186;-68
2023/11/18 13:10:53;;;;;;;5.87;4.27;;;6.90;99.90;;;;;;5045392;28;20276;-67
2023/11/18 13:13:22;;;;;;;4.57;3.77;;;6.90;99.90;;;;;;5049823;28;20277;-67